createdAt,value
2018-03-26T00:00:00.978Z,42.90
2018-03-26T00:02:28.451Z,48.92
2018-03-26T00:04:55.911Z,48.95
2018-03-26T00:07:23.368Z,44.95
2018-03-26T00:09:50.853Z,50.60
2018-03-26T00:12:18.308Z,50.78
2018-03-26T00:14:45.788Z,54.10
2018-03-26T00:17:13.255Z,50.67
2018-03-26T00:19:40.729Z,50.78
2018-03-26T00:22:08.276Z,58.95
2018-03-26T00:24:35.754Z,56.22
2018-03-26T00:27:03.538Z,45.33
2018-03-26T00:29:31.002Z,53.95
2018-03-26T00:31:58.479Z,52.83
2018-03-26T00:34:25.942Z,55.92
2018-03-26T00:36:53.432Z,58.10
2018-03-26T00:39:20.922Z,53.53
2018-03-26T00:41:48.400Z,50.70
2018-03-26T00:44:15.859Z,52.78
2018-03-26T00:46:43.326Z,56.37
2018-03-26T00:49:10.791Z,49.67
2018-03-26T00:51:38.251Z,59.83
2018-03-26T00:54:05.775Z,59.75
2018-03-26T00:56:33.361Z,54.13
2018-03-26T00:59:00.844Z,57.47
2018-03-26T01:01:28.328Z,54.58
2018-03-26T01:03:55.837Z,54.65
2018-03-26T01:06:23.345Z,60.20
2018-03-26T01:08:50.820Z,51.28
2018-03-26T01:11:18.332Z,50.75
2018-03-26T01:13:45.863Z,55.10
2018-03-26T01:16:13.369Z,56.22
2018-03-26T01:18:40.831Z,58.67
2018-03-26T01:21:08.303Z,66.12
2018-03-26T01:23:35.791Z,54.80
2018-03-26T01:26:04.515Z,55.65
2018-03-26T01:28:32.720Z,56.30
2018-03-26T01:31:00.179Z,54.67
2018-03-26T01:33:27.639Z,61.37
2018-03-26T01:35:55.140Z,58.55
2018-03-26T01:38:22.622Z,56.50
2018-03-26T01:40:50.112Z,58.25
2018-03-26T01:43:17.564Z,58.05
2018-03-26T01:45:45.052Z,53.58
2018-03-26T01:48:12.531Z,50.95
2018-03-26T01:50:39.997Z,49.38
2018-03-26T01:53:07.580Z,59.20
2018-03-26T01:55:35.039Z,54.72
2018-03-26T01:58:02.534Z,52.60
2018-03-26T02:00:30.004Z,53.60
2018-03-26T02:02:57.466Z,56.15
2018-03-26T02:05:24.948Z,51.05
2018-03-26T02:07:52.458Z,50.75
2018-03-26T02:10:19.932Z,50.53
2018-03-26T02:12:47.438Z,59.10
2018-03-26T02:15:14.929Z,54.28
2018-03-26T02:17:42.399Z,52.92
2018-03-26T02:20:09.942Z,56.20
2018-03-26T02:22:37.479Z,50.72
2018-03-26T02:25:05.102Z,55.80
2018-03-26T02:27:32.566Z,54.83
2018-03-26T02:30:00.097Z,51.42
2018-03-26T02:32:27.558Z,55.53
2018-03-26T02:34:55.024Z,52.13
2018-03-26T02:37:22.492Z,56.50
2018-03-26T02:39:49.967Z,57.10
2018-03-26T02:42:17.507Z,60.90
2018-03-26T02:44:45.020Z,58.25
2018-03-26T02:47:12.484Z,54.45
2018-03-26T02:49:39.972Z,60.50
2018-03-26T02:52:07.434Z,57.25
2018-03-26T02:54:34.893Z,53.15
2018-03-26T02:57:02.376Z,55.85
2018-03-26T02:59:29.834Z,58.53
2018-03-26T03:01:57.291Z,55.72
2018-03-26T03:04:24.782Z,57.33
2018-03-26T03:06:52.299Z,55.38
2018-03-26T03:09:19.786Z,59.03
2018-03-26T03:11:47.274Z,65.35
2018-03-26T03:14:14.731Z,89.45
2018-03-26T03:16:42.315Z,78.30
2018-03-26T03:19:09.819Z,78.28
2018-03-26T03:21:37.311Z,86.87
2018-03-26T03:24:04.789Z,68.43
2018-03-26T03:26:32.272Z,68.65
2018-03-26T03:28:59.728Z,63.83
2018-03-26T03:31:27.210Z,68.00
2018-03-26T03:33:56.345Z,65.80
2018-03-26T03:36:23.813Z,59.03
2018-03-26T03:38:51.297Z,56.08
2018-03-26T03:41:18.765Z,58.08
2018-03-26T03:43:46.366Z,58.05
2018-03-26T03:46:13.852Z,63.33
2018-03-26T03:48:41.317Z,64.60
2018-03-26T03:51:09.948Z,62.03
2018-03-26T03:53:37.757Z,57.28
2018-03-26T03:56:05.223Z,67.78
2018-03-26T03:58:32.699Z,64.18
2018-03-26T04:01:00.156Z,68.62
2018-03-26T04:03:27.623Z,61.10
2018-03-26T04:05:55.100Z,62.62
2018-03-26T04:08:22.654Z,72.07
2018-03-26T04:10:50.115Z,70.12
2018-03-26T04:13:17.600Z,61.78
2018-03-26T04:15:45.084Z,72.50
2018-03-26T04:18:13.128Z,56.42
2018-03-26T04:20:40.591Z,57.65
2018-03-26T04:23:08.062Z,58.92
2018-03-26T04:25:35.536Z,60.65
2018-03-26T04:28:03.018Z,58.38
2018-03-26T04:30:30.507Z,69.82
2018-03-26T04:32:58.004Z,61.25
2018-03-26T04:35:25.506Z,66.57
2018-03-26T04:37:52.968Z,66.32
2018-03-26T04:40:20.442Z,60.20
2018-03-26T04:42:47.919Z,64.43
2018-03-26T04:45:15.375Z,62.75
2018-03-26T04:47:43.036Z,57.67
2018-03-26T04:50:10.495Z,60.45
2018-03-26T04:52:37.980Z,59.67
2018-03-26T04:55:05.460Z,61.97
2018-03-26T04:57:33.459Z,63.40
2018-03-26T05:00:00.935Z,69.25
2018-03-26T05:02:28.453Z,71.78
2018-03-26T05:04:55.925Z,69.97
2018-03-26T05:07:23.398Z,61.75
2018-03-26T05:09:50.866Z,65.70
2018-03-26T05:12:18.319Z,59.80
2018-03-26T05:14:45.895Z,59.63
2018-03-26T05:17:13.379Z,76.95
2018-03-26T05:19:40.833Z,67.93
2018-03-26T05:22:08.386Z,69.18
2018-03-26T05:24:35.872Z,71.18
2018-03-26T05:27:03.386Z,60.33
2018-03-26T05:29:30.867Z,64.35
2018-03-26T05:31:58.328Z,60.55
2018-03-26T05:34:25.808Z,67.30
2018-03-26T05:36:53.274Z,62.17
2018-03-26T05:39:20.779Z,68.50
2018-03-26T05:41:48.255Z,63.63
2018-03-26T05:44:15.727Z,70.45
2018-03-26T05:46:43.215Z,60.92
2018-03-26T05:49:10.671Z,69.45
2018-03-26T05:51:39.114Z,73.93
2018-03-26T05:54:07.531Z,63.97
2018-03-26T05:56:35.152Z,58.83
2018-03-26T05:59:03.602Z,71.75
2018-03-26T06:01:31.376Z,66.47
2018-03-26T06:03:58.988Z,64.10
2018-03-26T06:06:26.534Z,61.67
2018-03-26T06:08:54.181Z,62.47
2018-03-26T06:11:21.744Z,62.70
2018-03-26T06:13:49.390Z,61.25
2018-03-26T06:16:16.876Z,72.32
2018-03-26T06:18:45.955Z,63.22
2018-03-26T06:21:13.426Z,62.50
2018-03-26T06:23:41.003Z,70.93
2018-03-26T06:26:08.559Z,69.07
2018-03-26T06:28:36.018Z,54.40
2018-03-26T06:31:03.475Z,62.57
2018-03-26T06:33:30.967Z,59.90
2018-03-26T06:35:58.737Z,66.07
2018-03-26T06:38:31.892Z,69.07
2018-03-26T06:40:59.501Z,70.80
2018-03-26T06:43:26.995Z,62.60
2018-03-26T06:45:54.507Z,70.47
2018-03-26T06:48:22.171Z,67.80
2018-03-26T06:50:49.675Z,64.80
2018-03-26T06:53:17.390Z,62.77
2018-03-26T07:08:43.419Z,64.40
2018-03-26T07:11:10.906Z,58.37
2018-03-26T07:13:38.394Z,63.40
2018-03-26T07:16:06.036Z,60.90
2018-03-26T07:18:34.049Z,60.50
2018-03-26T07:21:01.553Z,61.57
2018-03-26T07:23:29.043Z,61.07
2018-03-26T07:25:56.630Z,59.97
2018-03-26T07:28:24.348Z,62.93
2018-03-26T07:30:51.839Z,59.37
2018-03-26T07:33:19.341Z,64.43
2018-03-26T07:35:46.913Z,61.10
2018-03-26T07:38:14.319Z,60.37
2018-03-26T07:40:41.828Z,56.07
2018-03-26T07:43:09.321Z,67.60
2018-03-26T07:45:36.790Z,56.87
2018-03-26T07:48:04.297Z,62.70
2018-03-26T07:50:31.824Z,59.83
2018-03-26T07:52:59.993Z,60.03
2018-03-26T07:55:27.847Z,57.80
2018-03-26T07:57:55.472Z,62.73
2018-03-26T08:00:23.024Z,60.63
2018-03-26T08:02:50.598Z,60.90
2018-03-26T08:05:18.091Z,63.23
2018-03-26T08:07:45.748Z,63.80
2018-03-26T08:10:13.215Z,59.53
2018-03-26T08:12:40.699Z,64.13
2018-03-26T08:15:08.202Z,58.40
2018-03-26T08:17:35.705Z,65.90
2018-03-26T08:20:03.911Z,60.83
2018-03-26T08:22:31.440Z,60.70
2018-03-26T08:24:58.936Z,62.10
2018-03-26T08:27:26.468Z,64.93
2018-03-26T08:29:54.032Z,62.50
2018-03-26T08:32:21.527Z,64.90
2018-03-26T08:34:49.018Z,59.83
2018-03-26T08:37:16.540Z,65.43
2018-03-26T08:39:44.027Z,67.13
2018-03-26T08:42:11.585Z,62.50
2018-03-26T08:44:39.126Z,60.70
2018-03-26T08:47:06.612Z,60.17
2018-03-26T08:49:34.204Z,62.97
2018-03-26T08:52:01.688Z,61.30
2018-03-26T08:54:29.241Z,61.97
2018-03-26T08:56:56.808Z,60.70
2018-03-26T08:59:24.536Z,64.70
2018-03-26T09:01:52.101Z,67.67
2018-03-26T09:04:19.665Z,60.67
2018-03-26T09:06:47.175Z,60.10
2018-03-26T09:09:14.675Z,58.07
2018-03-26T09:11:42.225Z,57.23
2018-03-26T09:14:09.792Z,64.27
2018-03-26T09:16:37.370Z,69.40
2018-03-26T09:19:05.207Z,58.00
2018-03-26T09:21:32.753Z,63.17
2018-03-26T09:24:00.318Z,62.63
2018-03-26T09:26:28.317Z,62.67
2018-03-26T09:28:56.068Z,67.77
2018-03-26T09:31:23.646Z,59.27
2018-03-26T09:33:57.469Z,61.23
2018-03-26T09:36:25.066Z,55.23
2018-03-26T09:38:52.665Z,58.27
2018-03-26T09:41:20.460Z,71.90
2018-03-26T09:43:47.998Z,60.80
2018-03-26T09:46:15.516Z,58.50
2018-03-26T09:48:43.094Z,63.67
2018-03-26T09:51:10.596Z,60.27
2018-03-26T09:53:38.155Z,69.80
2018-03-26T09:56:05.669Z,57.13
2018-03-26T09:58:33.190Z,53.50
2018-03-26T10:01:02.480Z,60.70
2018-03-26T10:03:30.006Z,62.67
2018-03-26T10:05:57.582Z,69.93
2018-03-26T10:08:25.091Z,55.23
2018-03-26T10:10:52.556Z,58.40
2018-03-26T10:13:20.024Z,56.20
2018-03-26T10:15:47.505Z,63.97
2018-03-26T10:18:14.978Z,55.43
2018-03-26T10:20:42.460Z,58.80
2018-03-26T10:23:09.953Z,58.37
2018-03-26T10:25:37.458Z,57.77
2018-03-26T10:28:04.951Z,57.13
2018-03-26T10:30:32.452Z,62.97
2018-03-26T10:32:59.941Z,62.90
2018-03-26T10:35:27.416Z,61.87
2018-03-26T10:37:54.953Z,63.90
2018-03-26T10:40:22.487Z,66.17
2018-03-26T10:42:49.940Z,72.07
2018-03-26T10:45:17.464Z,68.13
2018-03-26T10:47:44.972Z,60.73
2018-03-26T10:50:12.530Z,58.97
2018-03-26T10:52:40.005Z,57.03
2018-03-26T10:55:07.475Z,59.17
2018-03-26T10:57:34.938Z,56.83
2018-03-26T11:00:02.459Z,53.23
2018-03-26T11:02:29.915Z,56.50
2018-03-26T11:04:57.378Z,48.87
2018-03-26T11:07:24.889Z,48.77
2018-03-26T11:09:52.349Z,44.67
2018-03-26T11:12:19.880Z,42.90
2018-03-26T11:14:47.375Z,44.73
2018-03-26T11:17:14.831Z,45.10
2018-03-26T11:19:42.312Z,45.00
2018-03-26T11:22:09.777Z,49.13
2018-03-26T11:24:37.246Z,49.60
2018-03-26T11:27:04.742Z,54.70
2018-03-26T11:29:32.219Z,51.20
2018-03-26T11:31:59.686Z,49.67
2018-03-26T11:34:27.169Z,64.30
2018-03-26T11:36:54.640Z,51.43
2018-03-26T11:39:22.108Z,59.90
2018-03-26T11:41:49.668Z,58.13
2018-03-26T11:44:17.141Z,52.50
2018-03-26T11:46:44.625Z,50.73
2018-03-26T11:49:12.083Z,54.70
2018-03-26T11:51:39.567Z,57.67
2018-03-26T11:54:07.124Z,51.63
2018-03-26T11:56:35.337Z,56.00
2018-03-26T11:59:03.438Z,59.80
2018-03-26T12:01:32.672Z,54.60
2018-03-26T12:04:00.175Z,53.73
2018-03-26T12:06:27.664Z,56.93
2018-03-26T12:08:55.224Z,56.20
2018-03-26T12:11:22.716Z,58.43
2018-03-26T12:13:50.192Z,53.37
2018-03-26T12:16:17.929Z,59.00
2018-03-26T12:18:48.043Z,57.43
2018-03-26T12:21:15.515Z,59.97
2018-03-26T12:23:54.761Z,56.17
2018-03-26T12:26:22.969Z,58.90
2018-03-26T12:29:02.234Z,55.87
2018-03-26T12:31:29.696Z,60.13
2018-03-26T12:36:58.364Z,64.40
2018-03-26T12:39:25.848Z,59.50
2018-03-26T12:41:57.117Z,54.23
2018-03-26T12:44:36.151Z,57.10
2018-03-26T12:47:03.657Z,52.93
2018-03-26T12:49:31.136Z,49.77
2018-03-26T12:52:10.327Z,54.47
2018-03-26T12:54:37.802Z,52.93
2018-03-26T12:57:17.060Z,54.43
2018-03-26T12:59:44.537Z,52.80
2018-03-26T13:02:33.990Z,58.20
2018-03-26T13:05:01.490Z,54.90
2018-03-26T13:07:28.970Z,53.53
2018-03-26T13:09:58.388Z,50.17
2018-03-26T13:12:25.871Z,51.67
2018-03-26T13:14:53.425Z,56.27
2018-03-26T13:17:20.981Z,57.10
2018-03-26T13:19:48.525Z,53.27
2018-03-26T13:22:15.994Z,53.07
2018-03-26T13:24:43.478Z,73.13
2018-03-26T13:27:10.930Z,52.07
2018-03-26T13:29:39.249Z,52.50
2018-03-26T13:32:06.737Z,51.83
2018-03-26T13:34:34.227Z,55.57
2018-03-26T13:37:01.683Z,61.00
2018-03-26T13:39:29.138Z,55.93
2018-03-26T13:41:56.669Z,49.50
2018-03-26T13:44:24.463Z,54.10
2018-03-26T13:46:51.916Z,57.93
2018-03-26T13:49:21.525Z,59.70
2018-03-26T13:51:48.991Z,53.90
2018-03-26T13:54:16.455Z,54.13
2018-03-26T13:56:43.960Z,47.87
2018-03-26T13:59:12.686Z,51.73
2018-03-26T14:01:40.171Z,50.60
2018-03-26T14:04:08.731Z,58.70
2018-03-26T14:06:37.165Z,48.93
2018-03-26T14:09:16.343Z,49.77
2018-03-26T14:11:55.521Z,50.83
2018-03-26T14:14:34.833Z,55.70
2018-03-26T14:17:14.090Z,52.47
2018-03-26T14:19:41.583Z,59.90
2018-03-26T14:22:09.053Z,55.57
2018-03-26T14:24:36.517Z,55.37
2018-03-26T14:27:03.998Z,50.50
2018-03-26T14:29:31.543Z,54.90
2018-03-26T14:31:59.015Z,46.60
2018-03-26T14:34:26.436Z,50.47
2018-03-26T14:36:53.922Z,51.77
2018-03-26T14:39:21.404Z,48.13
2018-03-26T14:41:48.875Z,51.23
2018-03-26T14:44:16.338Z,52.00
2018-03-26T14:46:43.823Z,51.33
2018-03-26T14:49:11.422Z,52.10
2018-03-26T14:51:38.915Z,50.77
2018-03-26T14:54:06.395Z,51.67
2018-03-26T14:56:33.874Z,52.97
2018-03-26T14:59:01.336Z,51.50
2018-03-26T15:01:28.837Z,49.67
2018-03-26T15:04:00.869Z,50.70
2018-03-26T15:06:28.360Z,51.70
2018-03-26T15:08:55.831Z,50.60
2018-03-26T15:11:23.304Z,51.53
2018-03-26T15:13:50.783Z,52.37
2018-03-26T15:16:18.248Z,53.83
2018-03-26T15:18:45.710Z,51.90
2018-03-26T15:21:13.185Z,57.37
2018-03-26T15:23:40.684Z,51.37
2018-03-26T15:26:08.153Z,57.53
2018-03-26T15:28:35.618Z,53.83
2018-03-26T15:31:03.140Z,52.67
2018-03-26T15:33:30.602Z,52.73
2018-03-26T15:35:58.074Z,51.50
2018-03-26T15:38:25.542Z,49.80
2018-03-26T15:40:53.033Z,56.73
2018-03-26T15:43:20.498Z,53.80
2018-03-26T15:45:47.969Z,48.53
2018-03-26T15:48:15.473Z,51.20
2018-03-26T15:50:42.952Z,49.47
2018-03-26T15:53:10.659Z,53.57
2018-03-26T15:55:38.108Z,54.27
2018-03-26T15:58:05.579Z,54.03
2018-03-26T16:00:33.039Z,48.83
2018-03-26T16:03:06.127Z,50.77
2018-03-26T16:05:33.583Z,50.30
2018-03-26T16:08:01.031Z,56.20
2018-03-26T16:10:28.637Z,51.73
2018-03-26T16:12:56.103Z,53.60
2018-03-26T16:15:23.576Z,53.13
2018-03-26T16:17:51.078Z,50.93
2018-03-26T16:20:18.564Z,50.23
2018-03-26T16:22:46.032Z,54.07
2018-03-26T16:25:13.534Z,56.30
2018-03-26T16:27:41.042Z,50.50
2018-03-26T16:30:08.522Z,50.30
2018-03-26T16:32:35.980Z,49.80
2018-03-26T16:35:03.461Z,53.47
2018-03-26T16:37:30.944Z,56.23
2018-03-26T16:39:58.398Z,57.23
2018-03-26T16:42:27.459Z,51.13
2018-03-26T16:44:54.944Z,57.20
2018-03-26T16:47:22.454Z,50.17
2018-03-26T16:49:49.931Z,57.13
2018-03-26T16:52:17.429Z,56.60
2018-03-26T16:54:44.928Z,63.97
2018-03-26T16:57:13.509Z,57.93
2018-03-26T16:59:41.098Z,55.73
2018-03-26T17:02:08.668Z,60.50
2018-03-26T17:04:37.054Z,51.43
2018-03-26T17:09:39.112Z,53.83
2018-03-26T17:12:08.349Z,55.00
2018-03-26T17:14:35.988Z,55.20
2018-03-26T17:17:03.560Z,53.20
2018-03-26T17:19:31.102Z,54.40
2018-03-26T17:21:58.589Z,55.90
2018-03-26T17:24:26.106Z,51.63
2018-03-26T17:26:53.760Z,55.40
2018-03-26T17:29:21.306Z,51.40
2018-03-26T17:31:49.762Z,51.57
2018-03-26T17:34:17.286Z,55.50
2018-03-26T17:36:45.062Z,49.17
2018-03-26T17:39:12.598Z,54.37
2018-03-26T17:41:40.172Z,53.37
2018-03-26T17:44:07.700Z,51.50
2018-03-26T17:46:35.237Z,56.43
2018-03-26T17:49:03.157Z,53.40
2018-03-26T17:51:30.700Z,57.00
2018-03-26T17:53:58.240Z,49.40
2018-03-26T17:56:25.773Z,52.60
2018-03-26T17:58:53.283Z,52.43
2018-03-26T18:01:20.844Z,49.03
2018-03-26T18:03:48.312Z,52.23
2018-03-26T18:06:15.820Z,46.30
2018-03-26T18:08:43.446Z,48.30
2018-03-26T18:11:10.975Z,50.60
2018-03-26T18:13:38.473Z,50.63
2018-03-26T18:16:07.060Z,48.10
2018-03-26T18:18:35.257Z,50.80
2018-03-26T18:21:02.917Z,49.57
2018-03-26T18:23:30.429Z,51.40
2018-03-26T18:25:57.981Z,48.33
2018-03-26T18:28:25.474Z,50.37
2018-03-26T18:30:53.066Z,50.07
2018-03-26T18:33:20.562Z,54.63
2018-03-26T18:35:51.198Z,51.13
2018-03-26T18:38:18.764Z,48.23
2018-03-26T18:40:47.479Z,55.50
2018-03-26T18:43:15.593Z,52.43
2018-03-26T18:45:44.400Z,53.83
2018-03-26T18:48:11.958Z,51.07
2018-03-26T18:50:39.580Z,47.63
2018-03-26T18:53:10.484Z,49.53
2018-03-26T18:55:38.025Z,52.80
2018-03-26T18:58:05.513Z,53.57
2018-03-26T19:00:33.124Z,53.17
2018-03-26T19:03:01.088Z,52.63
2018-03-26T19:05:28.716Z,49.70
2018-03-26T19:07:58.345Z,52.40
2018-03-26T19:10:25.913Z,49.13
2018-03-26T19:12:53.525Z,47.97
2018-03-26T19:15:21.310Z,51.00
2018-03-26T19:17:49.835Z,54.60
2018-03-26T19:20:17.456Z,53.90
2018-03-26T19:22:45.069Z,51.07
2018-03-26T19:25:12.673Z,50.80
2018-03-26T19:27:42.838Z,55.00
2018-03-26T19:30:12.058Z,56.80
2018-03-26T19:32:39.575Z,54.13
2018-03-26T19:35:07.096Z,52.03
2018-03-26T19:37:34.701Z,50.47
2018-03-26T19:40:02.225Z,51.40
2018-03-26T19:42:29.768Z,52.97
2018-03-26T19:44:57.320Z,60.23
2018-03-26T19:47:24.921Z,54.60
2018-03-26T19:49:52.508Z,51.80
2018-03-26T19:52:20.570Z,56.17
2018-03-26T19:54:48.458Z,56.63
2018-03-26T19:57:17.404Z,59.90
2018-03-26T19:59:44.898Z,50.87
2018-03-26T20:02:12.538Z,55.90
2018-03-26T20:04:43.112Z,56.33
2018-03-26T20:07:10.745Z,54.33
2018-03-26T20:09:38.244Z,53.50
2018-03-26T20:12:05.847Z,54.20
2018-03-26T20:14:33.473Z,48.90
2018-03-26T20:17:00.947Z,60.47
2018-03-26T20:19:28.481Z,55.10
2018-03-26T20:21:58.886Z,58.03
2018-03-26T20:24:26.503Z,56.87
2018-03-26T20:26:54.029Z,56.70
2018-03-26T20:29:22.943Z,53.97
2018-03-26T20:31:50.522Z,52.93
2018-03-26T20:34:18.084Z,58.07
2018-03-26T20:36:46.417Z,57.40
2018-03-26T20:39:13.944Z,58.83
2018-03-26T20:41:41.479Z,60.33
2018-03-26T20:44:08.985Z,61.40
2018-03-26T20:46:36.496Z,59.60
2018-03-26T20:51:40.950Z,65.30
2018-03-26T20:54:08.830Z,59.10
2018-03-26T20:56:36.368Z,68.83
2018-03-26T20:59:03.944Z,61.73
2018-03-26T21:01:31.458Z,73.93
2018-03-26T21:03:59.056Z,66.87
2018-03-26T21:06:27.287Z,66.30
2018-03-26T21:21:50.495Z,66.87
2018-03-26T21:24:18.024Z,71.07
2018-03-26T21:26:45.669Z,79.63
2018-03-26T21:29:13.163Z,79.37
2018-03-26T21:31:40.729Z,82.43
2018-03-26T21:34:08.235Z,78.30
2018-03-26T21:36:35.721Z,72.37
2018-03-26T21:39:03.236Z,79.60
2018-03-26T21:41:30.734Z,79.13
2018-03-26T21:43:58.221Z,85.70
2018-03-26T21:46:25.824Z,78.17
2018-03-26T21:48:53.320Z,82.40
2018-03-26T21:51:20.955Z,82.13
2018-03-26T21:53:48.613Z,78.30
2018-03-26T21:56:16.273Z,80.87
2018-03-26T21:58:43.836Z,79.60
2018-03-26T22:01:11.346Z,77.30
2018-03-26T22:03:38.879Z,71.97
2018-03-26T22:08:40.377Z,73.40
2018-03-26T22:11:07.906Z,74.73
2018-03-26T22:13:35.376Z,77.30
2018-03-26T22:16:02.914Z,77.50
2018-03-26T22:18:30.396Z,70.17
2018-03-26T22:20:57.917Z,78.43
2018-03-26T22:23:25.478Z,71.73
2018-03-26T22:25:52.992Z,81.40
2018-03-26T22:28:20.543Z,80.60
2018-03-26T22:30:48.065Z,77.13
2018-03-26T22:33:15.551Z,79.27
2018-03-26T22:35:43.153Z,76.23
2018-03-26T22:38:10.632Z,79.53
2018-03-26T22:40:38.167Z,76.63
2018-03-26T22:43:05.794Z,80.90
2018-03-26T22:45:33.267Z,84.57
2018-03-26T22:48:00.756Z,81.07
2018-03-26T22:50:28.752Z,81.77
2018-03-26T22:52:56.323Z,80.73
2018-03-26T22:55:23.830Z,77.17
2018-03-26T22:57:51.351Z,82.87
2018-03-26T23:00:18.883Z,80.57
2018-03-26T23:02:46.376Z,93.47
2018-03-26T23:05:14.826Z,84.43
2018-03-26T23:07:43.150Z,82.00
2018-03-26T23:10:10.692Z,90.27
2018-03-26T23:12:39.275Z,89.13
2018-03-26T23:15:07.369Z,95.77
2018-03-26T23:17:35.486Z,88.97
2018-03-26T23:20:03.502Z,103.83
2018-03-26T23:22:42.812Z,93.20
2018-03-26T23:25:10.367Z,110.23
2018-03-26T23:27:38.133Z,109.20
2018-03-26T23:30:10.069Z,102.90
2018-03-26T23:32:37.686Z,98.63
2018-03-26T23:35:06.167Z,99.77
2018-03-26T23:37:33.735Z,96.47
2018-03-26T23:40:01.347Z,99.90
2018-03-26T23:42:28.954Z,99.50
2018-03-26T23:44:56.868Z,104.40
2018-03-26T23:47:24.575Z,93.30
2018-03-26T23:49:52.085Z,95.13
2018-03-26T23:52:19.604Z,99.57
2018-03-26T23:54:47.238Z,97.47
2018-03-26T23:57:14.892Z,96.00
2018-03-26T23:59:42.462Z,99.43
